createdAt,value
2018-03-18T00:02:09.436Z,4.87
2018-03-18T00:04:37.299Z,4.07
2018-03-18T00:07:05.052Z,3.05
2018-03-18T00:09:32.805Z,2.95
2018-03-18T00:12:00.661Z,3.05
2018-03-18T00:14:28.388Z,4.05
2018-03-18T00:16:56.217Z,3.45
2018-03-18T00:19:23.960Z,3.20
2018-03-18T00:21:51.759Z,3.08
2018-03-18T00:24:19.566Z,3.78
2018-03-18T00:26:47.393Z,3.55
2018-03-18T00:29:15.246Z,4.50
2018-03-18T00:31:43.023Z,4.55
2018-03-18T00:34:10.809Z,4.12
2018-03-18T00:36:38.545Z,3.10
2018-03-18T00:39:06.363Z,3.40
2018-03-18T00:41:34.115Z,5.03
2018-03-18T00:44:01.939Z,3.75
2018-03-18T00:46:30.006Z,4.30
2018-03-18T00:48:57.821Z,4.82
2018-03-18T00:51:37.393Z,4.75
2018-03-18T00:54:05.142Z,3.87
2018-03-18T00:56:32.825Z,5.25
2018-03-18T00:59:00.623Z,4.57
2018-03-18T01:01:28.273Z,4.82
2018-03-18T01:03:56.094Z,3.62
2018-03-18T01:06:23.834Z,4.68
2018-03-18T01:08:51.683Z,4.95
2018-03-18T01:11:19.445Z,3.35
2018-03-18T01:13:47.217Z,4.53
2018-03-18T01:16:15.008Z,4.12
2018-03-18T01:18:42.793Z,4.90
2018-03-18T01:21:10.571Z,4.43
2018-03-18T01:23:38.352Z,3.70
2018-03-18T01:26:06.128Z,4.20
2018-03-18T01:28:33.932Z,3.50
2018-03-18T01:31:01.677Z,4.40
2018-03-18T01:33:29.400Z,5.43
2018-03-18T01:35:57.136Z,4.53
2018-03-18T01:38:25.000Z,3.65
2018-03-18T01:40:52.707Z,3.75
2018-03-18T01:43:20.533Z,4.95
2018-03-18T01:45:48.278Z,3.37
2018-03-18T01:48:16.071Z,4.35
2018-03-18T01:50:43.932Z,4.60
2018-03-18T01:53:22.374Z,3.35
2018-03-18T01:55:51.033Z,5.10
2018-03-18T01:58:18.958Z,3.35
2018-03-18T02:00:46.688Z,4.00
2018-03-18T02:03:15.216Z,4.72
2018-03-18T02:05:42.991Z,4.10
2018-03-18T02:08:10.725Z,6.20
2018-03-18T02:10:38.502Z,5.15
2018-03-18T02:13:06.348Z,3.60
2018-03-18T02:15:34.080Z,4.20
2018-03-18T02:18:01.922Z,5.07
2018-03-18T02:20:29.686Z,4.90
2018-03-18T02:22:57.503Z,4.68
2018-03-18T02:25:25.378Z,4.30
2018-03-18T02:27:53.151Z,4.55
2018-03-18T02:30:21.779Z,3.30
2018-03-18T02:32:49.528Z,4.55
2018-03-18T02:35:17.279Z,4.30
2018-03-18T02:37:45.112Z,4.30
2018-03-18T02:40:12.826Z,3.83
2018-03-18T02:42:40.675Z,4.22
2018-03-18T02:45:08.418Z,2.97
2018-03-18T02:47:36.245Z,5.00
2018-03-18T02:50:03.994Z,2.85
2018-03-18T02:52:31.729Z,4.43
2018-03-18T02:54:59.596Z,4.12
2018-03-18T02:57:27.394Z,4.70
2018-03-18T02:59:55.138Z,3.67
2018-03-18T03:02:22.963Z,4.70
2018-03-18T03:04:50.701Z,3.53
2018-03-18T03:07:19.274Z,3.45
2018-03-18T03:09:47.076Z,3.90
2018-03-18T03:12:14.915Z,2.65
2018-03-18T03:14:42.653Z,4.10
2018-03-18T03:17:10.531Z,4.72
2018-03-18T03:19:38.323Z,4.18
2018-03-18T03:22:06.143Z,2.65
2018-03-18T03:24:34.550Z,3.22
2018-03-18T03:27:02.336Z,4.97
2018-03-18T03:29:30.073Z,4.37
2018-03-18T03:31:57.902Z,3.47
2018-03-18T03:34:25.684Z,3.33
2018-03-18T03:36:53.470Z,3.85
2018-03-18T03:39:21.261Z,4.57
2018-03-18T03:41:49.011Z,3.00
2018-03-18T03:44:16.825Z,3.35
2018-03-18T03:46:44.575Z,3.40
2018-03-18T03:49:12.393Z,4.35
2018-03-18T03:51:40.132Z,3.45
2018-03-18T03:54:07.964Z,3.97
2018-03-18T03:56:35.793Z,3.95
2018-03-18T03:59:03.596Z,2.90
2018-03-18T04:01:31.422Z,3.80
2018-03-18T04:03:59.190Z,3.62
2018-03-18T04:06:26.943Z,3.80
2018-03-18T04:08:54.776Z,4.37
2018-03-18T04:11:22.517Z,3.72
2018-03-18T04:13:50.360Z,2.95
2018-03-18T04:16:18.091Z,2.55
2018-03-18T04:18:45.872Z,3.10
2018-03-18T04:21:14.621Z,3.67
2018-03-18T04:23:42.390Z,4.28
2018-03-18T04:26:10.232Z,3.30
2018-03-18T04:28:37.978Z,3.40
2018-03-18T04:31:05.719Z,3.05
2018-03-18T04:33:33.550Z,3.22
2018-03-18T04:36:01.346Z,3.53
2018-03-18T04:38:29.825Z,2.92
2018-03-18T04:40:57.573Z,4.40
2018-03-18T04:43:25.401Z,2.37
2018-03-18T04:45:53.133Z,2.67
2018-03-18T04:48:20.928Z,3.50
2018-03-18T04:50:48.744Z,3.37
2018-03-18T04:53:16.505Z,3.90
2018-03-18T04:55:44.329Z,3.28
2018-03-18T04:58:12.051Z,3.12
2018-03-18T05:00:39.883Z,2.62
2018-03-18T05:03:07.642Z,3.78
2018-03-18T05:05:35.485Z,3.45
2018-03-18T05:08:03.205Z,2.78
2018-03-18T05:10:31.070Z,3.67
2018-03-18T05:12:58.781Z,3.62
2018-03-18T05:15:26.613Z,3.72
2018-03-18T05:17:54.396Z,2.65
2018-03-18T05:20:22.073Z,3.65
2018-03-18T05:22:49.863Z,4.37
2018-03-18T05:25:17.702Z,2.60
2018-03-18T05:27:45.384Z,2.42
2018-03-18T05:30:13.212Z,3.75
2018-03-18T05:32:41.028Z,2.65
2018-03-18T05:35:08.750Z,4.15
2018-03-18T05:37:36.574Z,3.15
2018-03-18T05:40:04.324Z,2.75
2018-03-18T05:42:32.143Z,3.70
2018-03-18T05:44:59.925Z,2.67
2018-03-18T05:47:27.674Z,3.50
2018-03-18T05:49:55.470Z,2.05
2018-03-18T05:52:23.277Z,2.45
2018-03-18T05:54:51.016Z,3.37
2018-03-18T05:57:18.811Z,3.33
2018-03-18T05:59:46.655Z,2.78
2018-03-18T06:02:14.369Z,2.87
2018-03-18T06:04:42.203Z,2.70
2018-03-18T06:07:09.945Z,2.80
2018-03-18T06:09:37.803Z,2.72
2018-03-18T06:12:06.413Z,2.95
2018-03-18T06:14:34.225Z,3.12
2018-03-18T06:17:02.116Z,3.20
2018-03-18T06:19:29.924Z,3.53
2018-03-18T06:21:57.722Z,2.95
2018-03-18T06:24:25.466Z,2.90
2018-03-18T06:26:53.369Z,3.80
2018-03-18T06:29:21.178Z,2.75
2018-03-18T06:31:48.953Z,2.12
2018-03-18T06:34:16.704Z,2.58
2018-03-18T06:36:44.530Z,2.00
2018-03-18T06:39:12.327Z,2.70
2018-03-18T06:41:40.103Z,2.25
2018-03-18T06:44:07.836Z,2.72
2018-03-18T06:46:35.676Z,1.77
2018-03-18T06:49:03.411Z,2.87
2018-03-18T06:51:31.245Z,2.72
2018-03-18T06:53:58.977Z,3.00
2018-03-18T06:56:26.701Z,2.83
2018-03-18T06:58:54.444Z,1.50
2018-03-18T07:01:22.277Z,2.47
2018-03-18T07:03:50.013Z,2.67
2018-03-18T07:06:17.866Z,2.25
2018-03-18T07:08:45.599Z,3.22
2018-03-18T07:11:13.275Z,2.20
2018-03-18T07:13:41.098Z,2.20
2018-03-18T07:16:08.778Z,2.30
2018-03-18T07:18:36.598Z,1.62
2018-03-18T07:21:04.314Z,1.90
2018-03-18T07:23:32.129Z,2.45
2018-03-18T07:25:59.920Z,2.25
2018-03-18T07:28:27.711Z,2.28
2018-03-18T07:30:55.447Z,2.00
2018-03-18T07:33:23.275Z,1.95
2018-03-18T07:35:51.022Z,2.08
2018-03-18T07:38:18.840Z,2.35
2018-03-18T07:40:46.596Z,2.45
2018-03-18T07:43:14.410Z,1.80
2018-03-18T07:45:42.155Z,3.20
2018-03-18T07:48:09.998Z,2.40
2018-03-18T07:50:37.731Z,1.90
2018-03-18T07:53:05.557Z,2.80
2018-03-18T07:55:33.304Z,2.85
2018-03-18T07:58:01.126Z,2.10
2018-03-18T08:00:28.856Z,3.03
2018-03-18T08:02:56.689Z,2.65
2018-03-18T08:05:24.477Z,1.73
2018-03-18T08:07:52.261Z,1.95
2018-03-18T08:10:20.009Z,2.20
2018-03-18T08:12:47.840Z,3.03
2018-03-18T08:15:15.648Z,2.85
2018-03-18T08:17:43.545Z,2.72
2018-03-18T08:20:11.407Z,2.03
2018-03-18T08:22:39.136Z,1.35
2018-03-18T08:25:07.033Z,2.05
2018-03-18T08:27:34.681Z,2.40
2018-03-18T08:30:02.530Z,2.20
2018-03-18T08:32:30.277Z,2.62
2018-03-18T08:34:58.109Z,2.35
2018-03-18T08:37:25.838Z,2.20
2018-03-18T08:39:53.676Z,2.10
2018-03-18T08:42:29.231Z,1.45
2018-03-18T08:44:57.004Z,3.00
2018-03-18T08:47:24.790Z,1.90
2018-03-18T08:49:52.649Z,2.95
2018-03-18T08:52:20.518Z,1.70
2018-03-18T08:54:48.379Z,2.30
2018-03-18T08:57:16.155Z,1.60
2018-03-18T08:59:43.983Z,2.55
2018-03-18T09:02:11.859Z,2.22
2018-03-18T09:04:39.731Z,2.40
2018-03-18T09:07:07.474Z,2.20
2018-03-18T09:09:35.280Z,2.50
2018-03-18T09:12:03.056Z,1.93
2018-03-18T09:14:30.858Z,2.23
2018-03-18T09:16:58.671Z,1.53
2018-03-18T09:19:26.597Z,1.70
2018-03-18T09:21:54.386Z,2.13
2018-03-18T09:24:22.207Z,2.00
2018-03-18T09:26:50.015Z,1.93
2018-03-18T09:29:17.887Z,2.13
2018-03-18T09:31:45.646Z,2.50
2018-03-18T09:34:13.463Z,1.40
2018-03-18T09:36:41.334Z,1.80
2018-03-18T09:39:09.066Z,1.75
2018-03-18T09:41:36.914Z,1.90
2018-03-18T09:44:04.694Z,2.37
2018-03-18T09:46:32.481Z,1.90
2018-03-18T09:49:00.233Z,2.10
2018-03-18T09:51:28.055Z,1.87
2018-03-18T09:53:55.862Z,1.77
2018-03-18T09:56:23.668Z,1.40
2018-03-18T09:58:51.462Z,2.20
2018-03-18T10:01:19.288Z,2.63
2018-03-18T10:03:47.035Z,2.03
2018-03-18T10:06:14.869Z,1.93
2018-03-18T10:08:42.706Z,2.27
2018-03-18T10:11:10.535Z,2.00
2018-03-18T10:13:38.375Z,1.90
2018-03-18T10:16:06.202Z,1.77
2018-03-18T10:18:33.951Z,2.10
2018-03-18T10:21:01.703Z,2.20
2018-03-18T10:23:29.530Z,2.50
2018-03-18T10:25:57.341Z,1.73
2018-03-18T10:28:25.052Z,2.37
2018-03-18T10:30:52.910Z,2.70
2018-03-18T10:33:20.643Z,1.90
2018-03-18T10:35:48.492Z,2.40
2018-03-18T10:38:16.211Z,1.63
2018-03-18T10:40:44.009Z,2.33
2018-03-18T10:43:11.830Z,2.40
2018-03-18T10:45:39.586Z,1.57
2018-03-18T10:48:07.423Z,2.13
2018-03-18T10:50:35.262Z,1.67
2018-03-18T10:53:03.075Z,2.57
2018-03-18T10:55:30.935Z,1.70
2018-03-18T10:57:58.789Z,1.90
2018-03-18T11:00:32.182Z,1.50
2018-03-18T11:03:00.063Z,2.10
2018-03-18T11:05:27.799Z,1.73
2018-03-18T11:07:55.635Z,2.07
2018-03-18T11:10:23.366Z,3.20
2018-03-18T11:12:52.125Z,1.63
2018-03-18T11:15:20.004Z,2.13
2018-03-18T11:17:47.774Z,2.00
2018-03-18T11:20:15.526Z,2.10
2018-03-18T11:22:43.386Z,1.63
2018-03-18T11:25:11.200Z,1.77
2018-03-18T11:27:39.020Z,1.53
2018-03-18T11:30:06.847Z,1.90
2018-03-18T11:32:34.652Z,1.67
2018-03-18T11:35:02.502Z,1.80
2018-03-18T11:37:30.336Z,1.70
2018-03-18T11:39:58.138Z,2.13
2018-03-18T11:42:26.650Z,1.60
2018-03-18T11:44:54.438Z,1.67
2018-03-18T11:47:22.165Z,1.60
2018-03-18T11:49:49.984Z,2.03
2018-03-18T11:52:17.727Z,1.73
2018-03-18T11:54:45.781Z,2.20
2018-03-18T11:57:13.530Z,2.00
2018-03-18T11:59:41.308Z,2.07
2018-03-18T12:02:09.141Z,2.23
2018-03-18T12:04:36.875Z,2.23
2018-03-18T12:07:04.682Z,2.30
2018-03-18T12:09:32.460Z,2.03
2018-03-18T12:12:00.262Z,1.60
2018-03-18T12:14:28.026Z,1.93
2018-03-18T12:16:55.900Z,2.20
2018-03-18T12:19:23.806Z,2.17
2018-03-18T12:21:51.520Z,2.13
2018-03-18T12:24:19.311Z,2.13
2018-03-18T12:26:47.225Z,2.23
2018-03-18T12:29:15.042Z,1.93
2018-03-18T12:31:42.860Z,1.67
2018-03-18T12:34:10.674Z,1.50
2018-03-18T12:36:38.474Z,2.20
2018-03-18T12:39:06.336Z,1.90
2018-03-18T12:41:34.202Z,2.50
2018-03-18T12:44:02.001Z,2.03
2018-03-18T12:46:29.771Z,2.07
2018-03-18T12:48:57.625Z,2.10
2018-03-18T12:51:25.451Z,2.57
2018-03-18T12:53:54.273Z,2.10
2018-03-18T12:56:22.044Z,2.40
2018-03-18T12:58:49.753Z,2.77
2018-03-18T13:01:17.539Z,2.50
2018-03-18T13:03:45.298Z,2.10
2018-03-18T13:06:13.019Z,1.80
2018-03-18T13:08:40.720Z,2.00
2018-03-18T13:11:08.375Z,2.27
2018-03-18T13:13:36.086Z,2.50
2018-03-18T13:16:03.776Z,1.40
2018-03-18T13:18:31.542Z,2.03
2018-03-18T13:20:59.220Z,1.77
2018-03-18T13:23:26.899Z,1.43
2018-03-18T13:25:54.809Z,1.67
2018-03-18T13:28:22.482Z,2.47
2018-03-18T13:30:50.160Z,2.20
2018-03-18T13:33:17.846Z,2.10
2018-03-18T13:35:45.632Z,2.07
2018-03-18T13:38:13.426Z,1.50
2018-03-18T13:40:41.157Z,2.23
2018-03-18T13:43:08.996Z,2.00
2018-03-18T13:45:36.766Z,1.97
2018-03-18T13:48:04.506Z,1.90
2018-03-18T13:50:32.141Z,1.87
2018-03-18T13:52:59.811Z,1.70
2018-03-18T13:55:27.491Z,1.50
2018-03-18T13:57:55.177Z,2.20
2018-03-18T14:00:22.982Z,1.43
2018-03-18T14:02:50.682Z,1.73
2018-03-18T14:05:18.319Z,1.90
2018-03-18T14:07:46.052Z,1.77
2018-03-18T14:10:13.797Z,1.37
2018-03-18T14:12:41.537Z,1.70
2018-03-18T14:15:09.265Z,1.53
2018-03-18T14:17:36.979Z,1.67
2018-03-18T14:20:04.741Z,1.43
2018-03-18T14:22:32.396Z,1.53
2018-03-18T14:25:00.122Z,1.47
2018-03-18T14:27:27.796Z,1.30
2018-03-18T14:29:55.503Z,1.97
2018-03-18T14:32:23.166Z,1.37
2018-03-18T14:34:50.882Z,1.50
2018-03-18T14:37:18.573Z,1.60
2018-03-18T14:39:46.245Z,2.07
2018-03-18T14:42:13.916Z,1.80
2018-03-18T14:44:41.661Z,2.23
2018-03-18T14:47:09.338Z,2.53
2018-03-18T14:49:37.032Z,2.10
2018-03-18T14:52:04.665Z,2.10
2018-03-18T14:54:33.432Z,2.53
2018-03-18T14:57:01.190Z,2.40
2018-03-18T14:59:28.890Z,2.00
2018-03-18T15:01:56.678Z,1.87
2018-03-18T15:04:24.358Z,2.10
2018-03-18T15:06:52.034Z,1.97
2018-03-18T15:09:19.680Z,1.70
2018-03-18T15:11:47.374Z,1.80
2018-03-18T15:14:15.024Z,2.10
2018-03-18T15:16:42.725Z,2.27
2018-03-18T15:19:10.418Z,2.00
2018-03-18T15:21:38.054Z,2.20
2018-03-18T15:24:05.748Z,1.73
2018-03-18T15:26:33.449Z,2.00
2018-03-18T15:29:01.122Z,2.20
2018-03-18T15:31:28.766Z,2.00
2018-03-18T15:33:56.450Z,1.80
2018-03-18T15:36:24.154Z,2.37
2018-03-18T15:38:51.802Z,1.70
2018-03-18T15:41:19.508Z,1.80
2018-03-18T15:43:47.176Z,1.80
2018-03-18T15:46:14.874Z,2.30
2018-03-18T15:48:42.588Z,2.23
2018-03-18T15:51:10.258Z,2.23
2018-03-18T15:53:37.962Z,1.57
2018-03-18T15:56:05.615Z,1.90
2018-03-18T15:58:33.366Z,1.80
2018-03-18T16:01:01.021Z,1.70
2018-03-18T16:03:29.386Z,1.90
2018-03-18T16:05:57.546Z,1.67
2018-03-18T16:08:25.576Z,1.60
2018-03-18T16:10:53.643Z,2.10
2018-03-18T16:13:21.497Z,2.03
2018-03-18T16:15:49.426Z,2.30
2018-03-18T16:18:17.536Z,1.70
2018-03-18T16:20:45.627Z,1.77
2018-03-18T16:23:13.694Z,1.80
2018-03-18T16:25:41.877Z,1.57
2018-03-18T16:28:09.896Z,1.93
2018-03-18T16:30:49.743Z,1.60
2018-03-18T16:33:17.424Z,1.63
2018-03-18T16:35:45.160Z,1.93
2018-03-18T16:38:12.879Z,2.20
2018-03-18T16:40:40.584Z,1.67
2018-03-18T16:43:08.274Z,1.90
2018-03-18T16:45:35.987Z,1.67
2018-03-18T16:48:03.673Z,2.10
2018-03-18T16:50:31.535Z,1.90
2018-03-18T16:52:59.208Z,2.20
2018-03-18T16:55:26.862Z,1.57
2018-03-18T16:57:54.574Z,2.17
2018-03-18T17:00:22.236Z,1.50
2018-03-18T17:02:49.958Z,1.77
2018-03-18T17:05:17.654Z,1.70
2018-03-18T17:07:45.342Z,2.10
2018-03-18T17:10:13.386Z,1.90
2018-03-18T17:12:41.113Z,1.90
2018-03-18T17:15:08.805Z,1.80
2018-03-18T17:17:36.510Z,2.10
2018-03-18T17:20:04.234Z,2.33
2018-03-18T17:22:32.027Z,1.90
2018-03-18T17:24:59.701Z,2.20
2018-03-18T17:27:27.444Z,1.80
2018-03-18T17:29:55.135Z,1.97
2018-03-18T17:32:22.853Z,2.00
2018-03-18T17:34:50.733Z,1.80
2018-03-18T17:37:18.496Z,1.50
2018-03-18T17:39:46.248Z,2.00
2018-03-18T17:42:13.976Z,1.80
2018-03-18T17:44:53.630Z,2.00
2018-03-18T17:47:33.004Z,1.30
2018-03-18T17:50:12.725Z,1.80
2018-03-18T17:52:52.495Z,1.75
2018-03-18T17:55:27.052Z,1.95
2018-03-18T17:57:55.846Z,1.70
2018-03-18T18:00:23.555Z,1.80
2018-03-18T18:02:51.270Z,1.97
2018-03-18T18:05:19.043Z,1.97
2018-03-18T18:07:46.751Z,1.30
2018-03-18T18:10:14.458Z,1.63
2018-03-18T18:12:42.171Z,2.20
2018-03-18T18:15:10.071Z,2.17
2018-03-18T18:17:37.793Z,1.80
2018-03-18T18:20:05.723Z,2.10
2018-03-18T18:22:33.423Z,2.00
2018-03-18T18:25:01.151Z,1.80
2018-03-18T18:27:28.845Z,2.00
2018-03-18T18:29:56.551Z,2.20
2018-03-18T18:32:24.203Z,2.03
2018-03-18T18:34:51.920Z,2.10
2018-03-18T18:37:19.587Z,2.40
2018-03-18T18:39:47.284Z,2.33
2018-03-18T18:42:15.027Z,2.10
2018-03-18T18:44:42.794Z,2.40
2018-03-18T18:47:10.505Z,1.90
2018-03-18T18:49:38.183Z,2.50
2018-03-18T18:52:05.887Z,2.20
2018-03-18T18:54:33.570Z,2.03
2018-03-18T18:57:01.305Z,2.37
2018-03-18T18:59:29.013Z,1.90
2018-03-18T19:01:56.783Z,2.53
2018-03-18T19:04:24.494Z,2.33
2018-03-18T19:06:52.205Z,1.60
2018-03-18T19:09:19.923Z,2.10
2018-03-18T19:11:47.741Z,2.40
2018-03-18T19:14:15.428Z,1.73
2018-03-18T19:16:43.158Z,2.62
2018-03-18T19:19:10.868Z,2.40
2018-03-18T19:21:38.586Z,2.50
2018-03-18T19:24:06.305Z,2.30
2018-03-18T19:26:33.993Z,2.50
2018-03-18T19:29:01.724Z,1.90
2018-03-18T19:31:29.435Z,2.17
2018-03-18T19:33:57.186Z,2.45
2018-03-18T19:36:24.905Z,2.20
2018-03-18T19:38:52.694Z,2.50
2018-03-18T19:41:20.525Z,2.33
2018-03-18T19:43:48.240Z,2.30
2018-03-18T19:46:15.943Z,2.50
2018-03-18T19:48:43.762Z,2.40
2018-03-18T19:51:11.435Z,2.10
2018-03-18T19:53:39.142Z,2.07
2018-03-18T19:56:07.755Z,2.05
2018-03-18T19:58:35.438Z,1.70
2018-03-18T20:01:03.147Z,2.40
2018-03-18T20:03:30.883Z,2.28
2018-03-18T20:05:58.553Z,2.10
2018-03-18T20:08:26.906Z,2.08
2018-03-18T20:10:54.824Z,2.67
2018-03-18T20:13:22.578Z,2.28
2018-03-18T20:15:50.264Z,2.33
2018-03-18T20:18:17.982Z,1.95
2018-03-18T20:20:45.761Z,2.05
2018-03-18T20:23:13.456Z,2.00
2018-03-18T20:25:41.129Z,2.20
2018-03-18T20:28:08.954Z,2.15
2018-03-18T20:30:36.655Z,1.98
2018-03-18T20:33:04.535Z,2.20
2018-03-18T20:35:32.239Z,2.33
2018-03-18T20:38:00.099Z,2.35
2018-03-18T20:40:27.824Z,2.12
2018-03-18T20:42:55.528Z,2.60
2018-03-18T20:45:23.194Z,1.97
2018-03-18T20:47:50.917Z,2.00
2018-03-18T20:50:18.614Z,2.30
2018-03-18T20:52:46.270Z,2.40
2018-03-18T20:55:14.001Z,2.40
2018-03-18T20:57:41.743Z,2.05
2018-03-18T21:00:09.470Z,2.15
2018-03-18T21:02:37.153Z,2.03
2018-03-18T21:05:04.862Z,2.08
2018-03-18T21:07:32.551Z,2.20
2018-03-18T21:10:01.267Z,2.12
2018-03-18T21:12:28.990Z,2.62
2018-03-18T21:14:56.677Z,2.33
2018-03-18T21:17:24.487Z,1.83
2018-03-18T21:19:52.188Z,2.00
2018-03-18T21:22:19.854Z,2.20
2018-03-18T21:24:47.545Z,1.92
2018-03-18T21:27:15.205Z,2.30
2018-03-18T21:29:42.909Z,2.20
2018-03-18T21:32:10.583Z,2.28
2018-03-18T21:34:40.229Z,1.92
2018-03-18T21:37:07.963Z,2.40
2018-03-18T21:39:35.662Z,2.08
2018-03-18T21:42:03.559Z,2.15
2018-03-18T21:44:31.256Z,2.20
2018-03-18T21:46:59.083Z,2.28
2018-03-18T21:49:26.740Z,2.87
2018-03-18T21:51:54.456Z,2.65
2018-03-18T21:54:22.176Z,2.22
2018-03-18T21:56:49.865Z,2.85
2018-03-18T21:59:17.565Z,2.33
2018-03-18T22:01:45.262Z,2.30
2018-03-18T22:04:12.926Z,2.37
2018-03-18T22:06:40.665Z,2.53
2018-03-18T22:09:08.371Z,2.17
2018-03-18T22:11:36.101Z,2.70
2018-03-18T22:14:03.840Z,2.20
2018-03-18T22:16:31.566Z,2.28
2018-03-18T22:18:59.281Z,2.37
2018-03-18T22:21:26.926Z,2.30
2018-03-18T22:23:54.648Z,2.22
2018-03-18T22:26:22.323Z,2.15
2018-03-18T22:28:50.026Z,2.35
2018-03-18T22:31:17.706Z,2.35
2018-03-18T22:33:45.390Z,1.90
2018-03-18T22:36:13.050Z,2.53
2018-03-18T22:38:40.937Z,2.55
2018-03-18T22:41:08.586Z,2.20
2018-03-18T22:43:36.335Z,2.62
2018-03-18T22:46:04.140Z,2.58
2018-03-18T22:48:31.838Z,2.65
2018-03-18T22:50:59.491Z,2.22
2018-03-18T22:53:27.342Z,2.58
2018-03-18T22:55:55.020Z,2.20
2018-03-18T22:58:22.689Z,2.60
2018-03-18T23:00:50.720Z,2.00
2018-03-18T23:03:18.399Z,2.10
2018-03-18T23:05:46.245Z,2.10
2018-03-18T23:08:13.945Z,2.22
2018-03-18T23:10:41.600Z,2.40
2018-03-18T23:13:09.327Z,2.22
2018-03-18T23:15:37.007Z,2.40
2018-03-18T23:18:04.895Z,2.28
2018-03-18T23:20:32.557Z,2.30
2018-03-18T23:23:00.354Z,2.47
2018-03-18T23:25:28.038Z,2.45
2018-03-18T23:27:55.711Z,2.58
2018-03-18T23:30:23.414Z,2.92
2018-03-18T23:32:51.070Z,2.67
2018-03-18T23:35:18.786Z,2.55
2018-03-18T23:37:46.460Z,3.00
2018-03-18T23:40:14.148Z,2.40
2018-03-18T23:42:41.853Z,2.33
2018-03-18T23:45:09.580Z,2.45
2018-03-18T23:47:37.250Z,2.67
2018-03-18T23:50:05.081Z,3.05
2018-03-18T23:52:32.748Z,2.60
2018-03-18T23:55:00.520Z,2.50
2018-03-18T23:57:28.216Z,2.50
2018-03-18T23:59:55.869Z,2.67
